createdAt,value
2018-04-17T00:01:37.850Z,11.80
2018-04-17T00:04:05.350Z,15.10
2018-04-17T00:06:32.828Z,12.50
2018-04-17T00:09:00.325Z,16.47
2018-04-17T00:11:27.797Z,9.50
2018-04-17T00:13:56.066Z,14.27
2018-04-17T00:16:25.095Z,10.47
2018-04-17T00:18:52.568Z,12.27
2018-04-17T00:21:20.077Z,15.93
2018-04-17T00:23:48.319Z,10.07
2018-04-17T00:26:16.785Z,7.97
2018-04-17T00:28:44.343Z,13.40
2018-04-17T00:31:12.880Z,11.40
2018-04-17T00:33:40.366Z,12.07
2018-04-17T00:36:07.883Z,9.90
2018-04-17T00:38:36.130Z,13.97
2018-04-17T00:41:03.645Z,13.17
2018-04-17T00:43:31.138Z,10.03
2018-04-17T00:45:58.648Z,11.77
2018-04-17T00:48:26.125Z,13.07
2018-04-17T00:50:53.637Z,13.20
2018-04-17T00:53:33.739Z,14.10
2018-04-17T00:56:01.228Z,14.63
2018-04-17T00:58:28.716Z,10.93
2018-04-17T01:00:56.981Z,8.67
2018-04-17T01:03:25.234Z,8.83
2018-04-17T01:05:52.762Z,14.07
2018-04-17T01:08:20.243Z,11.63
2018-04-17T01:10:47.738Z,7.70
2018-04-17T01:13:16.003Z,11.07
2018-04-17T01:15:44.256Z,7.73
2018-04-17T01:18:11.750Z,6.77
2018-04-17T01:20:39.233Z,10.00
2018-04-17T01:23:06.749Z,15.13
2018-04-17T01:25:34.231Z,15.97
2018-04-17T01:28:01.758Z,9.90
2018-04-17T01:30:29.236Z,15.50
2018-04-17T01:32:56.668Z,15.60
2018-04-17T01:35:24.219Z,8.40
2018-04-17T01:37:52.466Z,17.03
2018-04-17T01:40:19.977Z,11.53
2018-04-17T01:42:47.473Z,20.43
2018-04-17T01:45:14.958Z,10.00
2018-04-17T01:47:42.455Z,10.87
2018-04-17T01:50:10.704Z,11.43
2018-04-17T01:52:38.977Z,18.43
2018-04-17T01:55:07.261Z,9.47
2018-04-17T01:57:35.518Z,15.90
2018-04-17T02:00:03.776Z,13.77
2018-04-17T02:02:31.293Z,11.20
2018-04-17T02:04:58.781Z,13.40
2018-04-17T02:07:26.257Z,10.40
2018-04-17T02:09:54.761Z,9.63
2018-04-17T02:12:23.450Z,12.10
2018-04-17T02:14:50.969Z,13.93
2018-04-17T02:17:18.451Z,14.03
2018-04-17T02:19:45.973Z,16.50
2018-04-17T02:22:13.457Z,15.10
2018-04-17T02:24:41.737Z,11.70
2018-04-17T02:27:09.984Z,10.50
2018-04-17T02:29:39.146Z,11.97
2018-04-17T02:32:07.540Z,11.07
2018-04-17T02:34:35.806Z,12.17
2018-04-17T02:37:03.277Z,16.37
2018-04-17T02:39:30.791Z,9.80
2018-04-17T02:41:58.262Z,14.27
2018-04-17T02:44:25.821Z,9.17
2018-04-17T02:46:53.341Z,9.27
2018-04-17T02:49:21.587Z,11.97
2018-04-17T02:51:49.093Z,14.20
2018-04-17T02:54:17.394Z,9.33
2018-04-17T02:56:44.901Z,9.70
2018-04-17T02:59:12.374Z,10.43
2018-04-17T03:01:40.648Z,13.90
2018-04-17T03:04:08.909Z,13.70
2018-04-17T03:06:37.186Z,15.70
2018-04-17T03:09:05.483Z,10.43
2018-04-17T03:11:32.961Z,12.27
2018-04-17T03:14:00.467Z,18.50
2018-04-17T03:16:27.969Z,19.17
2018-04-17T03:18:55.445Z,13.30
2018-04-17T03:21:22.967Z,17.80
2018-04-17T03:23:50.468Z,10.30
2018-04-17T03:26:17.938Z,11.40
2018-04-17T03:28:45.459Z,11.93
2018-04-17T03:31:12.940Z,10.03
2018-04-17T03:33:41.070Z,10.70
2018-04-17T03:36:08.567Z,10.60
2018-04-17T03:38:36.033Z,11.20
2018-04-17T03:41:03.543Z,11.33
2018-04-17T03:43:31.041Z,9.27
2018-04-17T03:45:58.549Z,13.27
2018-04-17T03:48:26.029Z,12.13
2018-04-17T03:50:53.537Z,15.03
2018-04-17T03:53:21.774Z,11.47
2018-04-17T03:55:49.279Z,12.17
2018-04-17T03:58:17.526Z,13.33
2018-04-17T04:00:45.064Z,12.70
2018-04-17T04:03:12.541Z,10.43
2018-04-17T04:05:40.033Z,12.17
2018-04-17T04:08:07.536Z,14.30
2018-04-17T04:10:35.008Z,10.73
2018-04-17T04:13:02.506Z,10.83
2018-04-17T04:15:30.089Z,11.37
2018-04-17T04:18:09.514Z,9.57
2018-04-17T04:20:48.878Z,17.40
2018-04-17T04:23:29.434Z,13.10
2018-04-17T04:26:09.405Z,9.60
2018-04-17T04:28:36.894Z,7.00
2018-04-17T04:31:04.613Z,11.67
2018-04-17T04:33:32.120Z,12.73
2018-04-17T04:35:59.594Z,8.43
2018-04-17T04:38:27.129Z,17.40
2018-04-17T04:40:54.609Z,12.77
2018-04-17T04:43:22.086Z,9.83
2018-04-17T04:45:49.624Z,12.83
2018-04-17T04:48:17.137Z,10.90
2018-04-17T04:50:45.389Z,17.80
2018-04-17T04:53:12.872Z,11.67
2018-04-17T04:55:41.141Z,9.60
2018-04-17T04:58:09.471Z,12.70
2018-04-17T05:00:36.993Z,13.20
2018-04-17T05:03:04.486Z,15.33
2018-04-17T05:05:32.019Z,12.70
2018-04-17T05:07:59.602Z,11.00
2018-04-17T05:10:27.174Z,16.70
2018-04-17T05:12:55.363Z,10.73
2018-04-17T05:15:22.855Z,11.43
2018-04-17T05:17:51.309Z,15.93
2018-04-17T05:20:19.589Z,9.23
2018-04-17T05:22:47.874Z,11.63
2018-04-17T05:25:16.137Z,19.80
2018-04-17T05:27:44.381Z,9.20
2018-04-17T05:30:11.885Z,13.23
2018-04-17T05:32:40.150Z,12.27
2018-04-17T05:35:08.412Z,13.77
2018-04-17T05:37:36.692Z,13.13
2018-04-17T05:40:04.984Z,11.17
2018-04-17T05:42:33.234Z,11.40
2018-04-17T05:45:01.145Z,13.20
2018-04-17T05:47:28.672Z,16.47
2018-04-17T05:49:56.185Z,15.83
2018-04-17T05:52:23.681Z,12.90
2018-04-17T05:54:51.973Z,13.40
2018-04-17T05:57:20.466Z,14.30
2018-04-17T05:59:47.968Z,13.97
2018-04-17T06:02:15.518Z,24.40
2018-04-17T06:04:43.013Z,34.77
2018-04-17T06:07:11.290Z,12.70
2018-04-17T06:09:38.784Z,15.77
2018-04-17T06:12:06.306Z,17.23
2018-04-17T06:14:33.833Z,18.77
2018-04-17T06:17:01.365Z,17.13
2018-04-17T06:19:31.572Z,26.30
2018-04-17T06:21:59.939Z,15.50
2018-04-17T06:24:27.615Z,22.80
2018-04-17T06:26:55.124Z,18.70
2018-04-17T06:29:23.383Z,17.00
2018-04-17T06:31:50.883Z,18.50
2018-04-17T06:34:18.377Z,21.33
2018-04-17T06:36:45.881Z,22.87
2018-04-17T06:39:14.269Z,31.83
2018-04-17T06:41:41.833Z,16.57
2018-04-17T06:44:09.273Z,14.90
2018-04-17T06:46:37.553Z,20.53
2018-04-17T06:49:05.062Z,14.33
2018-04-17T06:51:32.543Z,19.40
2018-04-17T06:54:00.864Z,28.77
2018-04-17T06:56:28.385Z,33.00
2018-04-17T06:58:56.662Z,25.40
2018-04-17T07:01:24.936Z,22.30
2018-04-17T07:03:53.195Z,17.03
2018-04-17T07:06:20.708Z,24.43
2018-04-17T07:08:48.210Z,20.93
2018-04-17T07:11:15.724Z,22.00
2018-04-17T07:13:43.205Z,18.83
2018-04-17T07:16:10.719Z,19.47
2018-04-17T07:18:38.212Z,13.67
2018-04-17T07:21:05.715Z,23.73
2018-04-17T07:23:33.996Z,19.30
2018-04-17T07:26:01.527Z,22.70
2018-04-17T07:28:29.073Z,27.87
2018-04-17T07:30:56.560Z,25.03
2018-04-17T07:33:24.064Z,23.80
2018-04-17T07:35:51.595Z,39.00
2018-04-17T07:38:19.079Z,21.17
2018-04-17T07:40:46.718Z,27.60
2018-04-17T07:43:14.202Z,24.37
2018-04-17T07:45:41.687Z,44.77
2018-04-17T07:48:22.942Z,27.90
2018-04-17T07:50:50.431Z,30.77
2018-04-17T07:53:18.751Z,30.77
2018-04-17T07:55:46.564Z,37.13
2018-04-17T07:58:14.869Z,21.50
2018-04-17T08:00:42.362Z,26.13
2018-04-17T08:03:09.852Z,21.37
2018-04-17T08:05:37.359Z,21.93
2018-04-17T08:08:04.903Z,28.50
2018-04-17T08:10:32.386Z,24.63
2018-04-17T08:13:00.660Z,16.93
2018-04-17T08:15:28.147Z,17.43
2018-04-17T08:17:55.664Z,20.97
2018-04-17T08:20:23.145Z,27.60
2018-04-17T08:22:50.689Z,15.97
2018-04-17T08:25:18.172Z,35.27
2018-04-17T08:27:45.692Z,19.37
2018-04-17T08:30:13.201Z,21.70
2018-04-17T08:32:40.732Z,20.30
2018-04-17T08:35:08.232Z,13.03
2018-04-17T08:37:35.773Z,16.40
2018-04-17T08:40:03.254Z,19.23
2018-04-17T08:42:30.788Z,13.73
2018-04-17T08:44:59.951Z,13.17
2018-04-17T08:47:27.479Z,16.57
2018-04-17T08:49:55.000Z,15.20
2018-04-17T08:52:22.528Z,20.33
2018-04-17T08:54:50.012Z,17.20
2018-04-17T08:57:17.503Z,14.57
2018-04-17T08:59:45.034Z,14.73
2018-04-17T09:02:12.512Z,16.63
2018-04-17T09:04:40.012Z,18.40
2018-04-17T09:07:07.501Z,15.00
2018-04-17T09:09:35.005Z,15.30
2018-04-17T09:12:02.485Z,13.70
2018-04-17T09:14:30.000Z,14.73
2018-04-17T09:16:57.502Z,16.67
2018-04-17T09:19:25.028Z,19.40
2018-04-17T09:21:52.550Z,15.43
2018-04-17T09:24:20.077Z,15.00
2018-04-17T09:26:47.563Z,15.50
2018-04-17T09:29:15.921Z,13.50
2018-04-17T09:31:43.952Z,18.43
2018-04-17T09:34:11.470Z,26.23
2018-04-17T09:36:39.731Z,24.60
2018-04-17T09:39:07.222Z,17.60
2018-04-17T09:41:34.734Z,18.00
2018-04-17T09:44:02.270Z,19.23
2018-04-17T09:46:29.773Z,16.97
2018-04-17T09:48:57.264Z,14.93
2018-04-17T09:51:24.781Z,20.53
2018-04-17T09:53:53.028Z,15.83
2018-04-17T09:56:20.561Z,16.70
2018-04-17T09:58:48.073Z,12.43
2018-04-17T10:01:22.328Z,16.83
2018-04-17T10:03:49.821Z,11.70
2018-04-17T10:06:17.356Z,15.83
2018-04-17T10:08:45.682Z,11.50
2018-04-17T10:11:13.149Z,16.90
2018-04-17T10:13:40.662Z,18.63
2018-04-17T10:16:08.158Z,11.43
2018-04-17T10:18:35.674Z,10.73
2018-04-17T10:21:03.153Z,18.50
2018-04-17T10:23:31.439Z,9.60
2018-04-17T10:25:58.921Z,18.67
2018-04-17T10:28:26.413Z,12.13
2018-04-17T10:30:53.926Z,9.33
2018-04-17T10:33:21.435Z,11.00
2018-04-17T10:35:49.132Z,17.70
2018-04-17T10:38:16.633Z,15.73
2018-04-17T10:40:44.114Z,11.60
2018-04-17T10:43:11.625Z,14.70
2018-04-17T10:45:39.134Z,15.30
2018-04-17T10:48:06.649Z,14.27
2018-04-17T10:50:34.157Z,9.20
2018-04-17T10:53:02.407Z,9.90
2018-04-17T10:55:29.953Z,9.13
2018-04-17T10:57:57.438Z,12.03
2018-04-17T11:00:24.964Z,14.17
2018-04-17T11:02:52.472Z,9.83
2018-04-17T11:05:20.005Z,15.60
2018-04-17T11:07:47.528Z,9.93
2018-04-17T11:10:15.030Z,8.90
2018-04-17T11:12:43.319Z,11.37
2018-04-17T11:15:10.810Z,8.50
2018-04-17T11:17:38.313Z,8.20
2018-04-17T11:20:06.561Z,10.47
2018-04-17T11:22:34.069Z,10.17
2018-04-17T11:25:01.548Z,9.30
2018-04-17T11:27:29.068Z,16.43
2018-04-17T11:29:57.349Z,14.47
2018-04-17T11:32:24.829Z,8.10
2018-04-17T11:34:52.310Z,9.57
2018-04-17T11:37:19.816Z,12.97
2018-04-17T11:39:47.381Z,11.20
2018-04-17T11:42:14.889Z,11.13
2018-04-17T11:44:42.385Z,11.40
2018-04-17T11:47:09.961Z,6.73
2018-04-17T11:49:37.440Z,10.57
2018-04-17T11:52:04.944Z,9.47
2018-04-17T11:54:33.220Z,7.13
2018-04-17T11:57:01.497Z,8.93
2018-04-17T11:59:28.993Z,8.83
2018-04-17T12:01:56.503Z,8.37
2018-04-17T12:04:23.982Z,6.10
2018-04-17T12:06:51.537Z,5.90
2018-04-17T12:09:19.046Z,7.20
2018-04-17T12:11:46.561Z,11.30
2018-04-17T12:14:14.074Z,11.00
2018-04-17T12:16:42.347Z,9.30
2018-04-17T12:19:09.859Z,6.90
2018-04-17T12:21:37.381Z,10.60
2018-04-17T12:24:05.649Z,12.33
2018-04-17T12:26:33.901Z,7.70
2018-04-17T12:29:01.441Z,8.03
2018-04-17T12:31:28.917Z,11.23
2018-04-17T12:33:57.221Z,6.63
2018-04-17T12:36:25.492Z,12.23
2018-04-17T12:38:52.984Z,9.07
2018-04-17T12:41:20.508Z,13.53
2018-04-17T12:43:48.786Z,5.63
2018-04-17T12:46:16.308Z,8.40
2018-04-17T12:48:44.714Z,9.13
2018-04-17T12:51:12.780Z,5.93
2018-04-17T12:53:40.257Z,14.10
2018-04-17T12:56:07.775Z,7.47
2018-04-17T12:58:35.294Z,7.73
2018-04-17T13:01:02.787Z,10.50
2018-04-17T13:03:31.033Z,9.30
2018-04-17T13:05:58.551Z,10.73
2018-04-17T13:08:26.075Z,9.67
2018-04-17T13:10:53.562Z,7.87
2018-04-17T13:13:21.825Z,10.93
2018-04-17T13:15:49.344Z,6.20
2018-04-17T13:18:17.130Z,9.50
2018-04-17T13:20:44.609Z,11.33
2018-04-17T13:23:12.911Z,8.40
2018-04-17T13:25:40.407Z,9.30
2018-04-17T13:28:07.908Z,11.57
2018-04-17T13:30:35.469Z,5.67
2018-04-17T13:33:03.009Z,5.30
2018-04-17T13:35:30.528Z,7.67
2018-04-17T13:37:58.056Z,9.30
2018-04-17T13:40:25.572Z,7.93
2018-04-17T13:42:53.089Z,8.10
2018-04-17T13:45:20.595Z,13.57
2018-04-17T13:47:48.123Z,9.50
2018-04-17T13:50:15.601Z,7.87
2018-04-17T13:52:43.102Z,4.80
2018-04-17T13:55:10.605Z,6.93
2018-04-17T13:57:38.119Z,4.40
2018-04-17T14:00:05.688Z,6.50
2018-04-17T14:02:33.230Z,7.93
2018-04-17T14:05:00.737Z,7.60
2018-04-17T14:07:28.209Z,8.07
2018-04-17T14:09:55.767Z,4.30
2018-04-17T14:12:23.229Z,13.33
2018-04-17T14:14:51.489Z,8.30
2018-04-17T14:17:18.991Z,8.00
2018-04-17T14:19:47.341Z,4.70
2018-04-17T14:22:15.601Z,14.00
2018-04-17T14:24:43.084Z,16.57
2018-04-17T14:27:10.599Z,5.73
2018-04-17T14:29:38.089Z,12.10
2018-04-17T14:32:06.375Z,9.53
2018-04-17T14:34:34.604Z,11.13
2018-04-17T14:37:02.120Z,5.27
2018-04-17T14:39:29.560Z,5.20
2018-04-17T14:41:57.077Z,7.07
2018-04-17T14:44:24.603Z,9.50
2018-04-17T14:46:52.081Z,5.13
2018-04-17T14:49:20.353Z,7.30
2018-04-17T14:51:47.837Z,7.77
2018-04-17T14:54:15.360Z,6.13
2018-04-17T14:56:42.850Z,7.40
2018-04-17T14:59:10.371Z,13.43
2018-04-17T15:01:37.892Z,7.93
2018-04-17T15:04:05.409Z,8.23
2018-04-17T15:06:32.882Z,3.43
2018-04-17T15:09:01.148Z,6.10
2018-04-17T15:11:28.620Z,5.67
2018-04-17T15:13:56.133Z,4.23
2018-04-17T15:16:23.635Z,6.53
2018-04-17T15:18:51.885Z,6.53
2018-04-17T15:21:19.376Z,7.53
2018-04-17T15:23:46.889Z,8.17
2018-04-17T15:26:14.369Z,5.53
2018-04-17T15:28:42.645Z,5.80
2018-04-17T15:31:10.910Z,9.77
2018-04-17T15:33:38.385Z,4.00
2018-04-17T15:36:06.683Z,11.90
2018-04-17T15:38:34.177Z,4.03
2018-04-17T15:41:01.699Z,7.03
2018-04-17T15:43:29.197Z,10.53
2018-04-17T15:45:56.696Z,5.50
2018-04-17T15:48:24.220Z,8.07
2018-04-17T15:50:51.709Z,4.53
2018-04-17T15:53:20.017Z,8.90
2018-04-17T15:55:47.519Z,11.67
2018-04-17T15:58:15.027Z,6.70
2018-04-17T16:00:42.533Z,5.30
2018-04-17T16:03:10.054Z,9.37
2018-04-17T16:05:37.530Z,7.53
2018-04-17T16:08:05.021Z,8.73
2018-04-17T16:10:32.536Z,7.97
2018-04-17T16:13:00.041Z,10.03
2018-04-17T16:15:28.302Z,10.07
2018-04-17T16:17:55.824Z,7.53
2018-04-17T16:20:23.345Z,10.20
2018-04-17T16:22:50.840Z,16.13
2018-04-17T16:25:18.350Z,8.70
2018-04-17T16:27:45.855Z,15.43
2018-04-17T16:30:13.359Z,10.63
2018-04-17T16:32:40.868Z,5.53
2018-04-17T16:35:08.368Z,7.63
2018-04-17T16:37:35.849Z,8.40
2018-04-17T16:40:03.358Z,9.63
2018-04-17T16:42:30.854Z,22.50
2018-04-17T16:44:58.369Z,12.33
2018-04-17T16:47:25.856Z,5.07
2018-04-17T16:49:53.358Z,11.40
2018-04-17T16:52:20.869Z,10.37
2018-04-17T16:54:48.374Z,6.83
2018-04-17T16:57:17.721Z,6.23
2018-04-17T16:59:46.005Z,3.80
2018-04-17T17:02:19.031Z,8.77
2018-04-17T17:04:46.541Z,6.50
2018-04-17T17:07:14.020Z,5.83
2018-04-17T17:09:41.553Z,10.77
2018-04-17T17:12:09.804Z,6.20
2018-04-17T17:14:37.307Z,7.47
2018-04-17T17:17:06.114Z,5.63
2018-04-17T17:19:33.588Z,8.60
2018-04-17T17:22:01.102Z,6.67
2018-04-17T17:24:29.144Z,5.03
2018-04-17T17:26:56.673Z,20.87
2018-04-17T17:29:24.174Z,9.27
2018-04-17T17:31:51.705Z,6.77
2018-04-17T17:34:19.209Z,4.50
2018-04-17T17:36:46.721Z,7.97
2018-04-17T17:39:14.240Z,10.23
2018-04-17T17:41:41.766Z,5.47
2018-04-17T17:44:09.301Z,12.43
2018-04-17T17:46:36.744Z,5.27
2018-04-17T17:49:05.565Z,5.23
2018-04-17T17:51:33.378Z,7.23
2018-04-17T17:54:00.971Z,5.07
2018-04-17T17:56:28.501Z,9.10
2018-04-17T17:58:56.539Z,11.37
2018-04-17T18:01:24.108Z,18.20
2018-04-17T18:03:51.652Z,9.77
2018-04-17T18:06:19.149Z,9.30
2018-04-17T18:08:46.692Z,8.17
2018-04-17T18:11:14.238Z,9.10
2018-04-17T18:13:41.752Z,6.57
2018-04-17T18:16:10.040Z,6.40
2018-04-17T18:18:37.519Z,7.63
2018-04-17T18:21:05.079Z,6.43
2018-04-17T18:23:40.101Z,10.43
2018-04-17T18:26:08.598Z,12.97
2018-04-17T18:28:36.101Z,19.83
2018-04-17T18:31:03.685Z,4.73
2018-04-17T18:33:31.170Z,8.33
2018-04-17T18:35:58.665Z,12.77
2018-04-17T18:38:26.935Z,11.53
2018-04-17T18:40:54.771Z,8.10
2018-04-17T18:43:22.284Z,8.97
2018-04-17T18:45:49.797Z,14.57
2018-04-17T18:48:17.325Z,5.93
2018-04-17T18:50:44.820Z,11.03
2018-04-17T18:53:12.390Z,10.37
2018-04-17T18:55:39.949Z,11.03
2018-04-17T18:58:07.505Z,16.43
2018-04-17T19:00:35.061Z,7.20
2018-04-17T19:03:02.681Z,6.60
2018-04-17T19:05:30.200Z,9.53
2018-04-17T19:07:58.439Z,8.90
2018-04-17T19:10:26.004Z,8.67
2018-04-17T19:12:53.580Z,13.90
2018-04-17T19:15:21.102Z,12.30
2018-04-17T19:17:48.591Z,14.20
2018-04-17T19:20:16.120Z,10.50
2018-04-17T19:22:43.654Z,20.83
2018-04-17T19:25:11.145Z,11.03
2018-04-17T19:27:39.302Z,12.10
2018-04-17T19:30:08.369Z,8.07
2018-04-17T19:32:35.854Z,13.60
2018-04-17T19:35:03.409Z,10.53
2018-04-17T19:37:30.980Z,10.20
2018-04-17T19:39:58.429Z,18.37
2018-04-17T19:42:25.948Z,16.40
2018-04-17T19:44:53.465Z,7.77
2018-04-17T19:47:20.950Z,9.60
2018-04-17T19:49:48.469Z,12.00
2018-04-17T19:52:15.956Z,9.47
2018-04-17T19:54:43.491Z,12.53
2018-04-17T19:57:11.769Z,8.77
2018-04-17T19:59:39.252Z,13.53
2018-04-17T20:02:06.785Z,14.83
2018-04-17T20:04:35.034Z,10.63
2018-04-17T20:07:03.223Z,14.60
2018-04-17T20:09:30.718Z,11.67
2018-04-17T20:11:58.230Z,13.37
2018-04-17T20:14:25.711Z,9.47
2018-04-17T20:16:53.207Z,9.77
2018-04-17T20:19:20.717Z,8.57
2018-04-17T20:21:48.961Z,10.57
2018-04-17T20:24:17.358Z,12.97
2018-04-17T20:26:45.648Z,18.60
2018-04-17T20:29:13.134Z,10.87
2018-04-17T20:31:40.691Z,10.53
2018-04-17T20:34:08.174Z,16.13
2018-04-17T20:36:35.691Z,15.77
2018-04-17T20:39:03.208Z,11.33
2018-04-17T20:41:30.704Z,13.00
2018-04-17T20:43:58.251Z,12.20
2018-04-17T20:46:26.501Z,11.70
2018-04-17T20:48:54.002Z,14.50
2018-04-17T20:51:21.514Z,10.40
2018-04-17T20:53:49.778Z,22.03
2018-04-17T20:56:17.276Z,13.27
2018-04-17T20:58:44.773Z,13.80
2018-04-17T21:01:12.429Z,9.90
2018-04-17T21:03:39.881Z,9.83
2018-04-17T21:06:07.369Z,18.43
2018-04-17T21:08:34.888Z,14.20
2018-04-17T21:11:02.853Z,17.30
2018-04-17T21:13:30.354Z,24.40
2018-04-17T21:15:57.926Z,16.37
2018-04-17T21:18:26.191Z,12.03
2018-04-17T21:20:53.701Z,14.73
2018-04-17T21:23:21.957Z,13.00
2018-04-17T21:25:49.457Z,9.77
2018-04-17T21:28:17.000Z,12.40
2018-04-17T21:30:44.500Z,12.50
2018-04-17T21:33:12.798Z,14.60
2018-04-17T21:35:40.325Z,12.37
2018-04-17T21:38:07.857Z,8.77
2018-04-17T21:40:35.337Z,11.87
2018-04-17T21:43:02.817Z,16.80
2018-04-17T21:45:30.344Z,12.33
2018-04-17T21:47:57.843Z,12.40
2018-04-17T21:50:25.340Z,11.67
2018-04-17T21:52:52.846Z,12.67
2018-04-17T21:55:21.164Z,10.03
2018-04-17T21:57:48.640Z,9.10
2018-04-17T22:00:16.150Z,14.90
2018-04-17T22:02:43.637Z,12.60
2018-04-17T22:05:11.113Z,8.47
2018-04-17T22:07:38.617Z,8.70
2018-04-17T22:10:06.093Z,8.07
2018-04-17T22:12:33.585Z,14.70
2018-04-17T22:15:01.089Z,13.40
2018-04-17T22:17:28.616Z,6.47
2018-04-17T22:19:56.113Z,8.53
2018-04-17T22:22:23.621Z,10.90
2018-04-17T22:24:51.117Z,8.03
2018-04-17T22:27:18.649Z,10.53
2018-04-17T22:29:46.929Z,9.90
2018-04-17T22:32:15.175Z,13.90
2018-04-17T22:34:42.680Z,10.57
2018-04-17T22:37:10.291Z,13.10
2018-04-17T22:39:37.773Z,11.07
2018-04-17T22:42:06.016Z,10.90
2018-04-17T22:44:33.500Z,8.30
2018-04-17T22:47:01.013Z,6.27
2018-04-17T22:49:28.505Z,13.40
2018-04-17T22:51:56.019Z,15.50
2018-04-17T22:54:23.700Z,13.40
2018-04-17T22:56:51.204Z,10.93
2018-04-17T22:59:18.681Z,11.20
2018-04-17T23:01:46.191Z,16.10
2018-04-17T23:04:13.662Z,11.57
2018-04-17T23:06:41.932Z,7.50
2018-04-17T23:09:10.183Z,7.97
2018-04-17T23:11:37.710Z,10.20
2018-04-17T23:14:05.211Z,11.30
2018-04-17T23:16:32.716Z,7.00
2018-04-17T23:19:00.196Z,10.30
2018-04-17T23:21:27.677Z,10.20
2018-04-17T23:23:55.187Z,14.73
2018-04-17T23:26:22.671Z,15.40
2018-04-17T23:28:50.183Z,9.40
2018-04-17T23:31:17.661Z,10.60
2018-04-17T23:33:45.170Z,8.23
2018-04-17T23:36:13.434Z,10.53
2018-04-17T23:38:40.935Z,13.43
2018-04-17T23:41:08.416Z,7.07
2018-04-17T23:43:35.963Z,9.30
2018-04-17T23:46:03.400Z,8.40
2018-04-17T23:48:30.952Z,10.13
2018-04-17T23:50:58.456Z,12.17
2018-04-17T23:53:25.928Z,7.60
2018-04-17T23:55:53.432Z,9.03
2018-04-17T23:58:20.985Z,12.00
